Time;durP1;ratioP1;P1;durP2;ratioP2;P2;SDS_P1;SDS_P2;PMS_P1;PMS_P2;Temp;Humidity;BMP_temperature;BMP_pressure;BME280_temperature;BME280_humidity;BME280_pressure;Samples;Min_cycle;Max_cycle;Signal;HPM_P1;HPM_P2
2022/09/13 00:01:33;;;;;;;4.80;2.25;;;;;;;;;;10612139;27;20031;-74
2022/09/13 00:06:36;;;;;;;3.60;2.30;;;;;;;;;;10608318;27;20031;-74
2022/09/13 00:11:39;;;;;;;1.95;1.50;;;;;;;;;;10611833;27;20035;-74
2022/09/13 00:16:43;;;;;;;3.22;2.00;;;;;;;;;;10589002;27;20503;-74
2022/09/13 00:21:45;;;;;;;3.92;1.85;;;;;;;;;;10611523;27;20043;-74
2022/09/13 00:26:48;;;;;;;5.88;2.03;;;;;;;;;;10593921;27;20035;-74
2022/09/13 00:31:52;;;;;;;3.53;1.77;;;;;;;;;;10614780;27;20041;-75
2022/09/13 00:36:55;;;;;;;1.20;0.90;;;;;;;;;;10613298;27;20047;-75
2022/09/13 00:41:58;;;;;;;7.97;2.35;;;;;;;;;;10610884;27;20035;-75
2022/09/13 00:47:02;;;;;;;2.70;1.88;;;;;;;;;;10611715;27;20050;-75
2022/09/13 00:52:07;;;;;;;2.05;1.45;;;;;;;;;;10593657;27;20043;-75
2022/09/13 00:57:11;;;;;;;3.60;2.10;;;;;;;;;;10607010;27;20039;-75
2022/09/13 01:02:15;;;;;;;3.22;1.65;;;;;;;;;;10607754;27;20035;-77
2022/09/13 01:07:19;;;;;;;4.22;2.10;;;;;;;;;;10604553;27;20074;-77
2022/09/13 01:12:26;;;;;;;3.88;2.08;;;;;;;;;;10613130;27;20114;-75
2022/09/13 01:17:30;;;;;;;3.40;2.20;;;;;;;;;;10608310;27;20043;-75
2022/09/13 01:22:57;;;;;;;2.83;1.63;;;;;;;;;;10609161;27;20035;-75
2022/09/13 01:28:10;;;;;;;4.13;2.10;;;;;;;;;;10585282;27;20614;-75
2022/09/13 01:33:28;;;;;;;3.50;2.15;;;;;;;;;;10605963;27;20396;-75
2022/09/13 01:38:40;;;;;;;4.28;1.65;;;;;;;;;;10595355;27;20154;-75
2022/09/13 01:43:49;;;;;;;5.20;1.90;;;;;;;;;;10605029;27;20483;-76
2022/09/13 01:48:55;;;;;;;3.60;2.10;;;;;;;;;;10607086;27;20508;-75
2022/09/13 01:54:02;;;;;;;4.53;1.90;;;;;;;;;;10607169;27;20492;-76
2022/09/13 01:59:10;;;;;;;3.10;1.85;;;;;;;;;;10599774;27;20583;-77
2022/09/13 02:04:17;;;;;;;3.70;1.80;;;;;;;;;;10594318;27;20054;-75
2022/09/13 02:09:25;;;;;;;6.90;2.38;;;;;;;;;;10610136;27;20468;-75
2022/09/13 02:14:32;;;;;;;4.03;2.17;;;;;;;;;;10602937;27;20072;-75
2022/09/13 02:19:38;;;;;;;4.28;2.20;;;;;;;;;;10610258;27;20039;-76
2022/09/13 02:24:42;;;;;;;5.28;2.20;;;;;;;;;;10605066;27;20046;-75
2022/09/13 02:29:51;;;;;;;3.58;2.22;;;;;;;;;;10607060;27;20065;-76
2022/09/13 02:34:58;;;;;;;4.57;2.20;;;;;;;;;;10605713;27;20032;-76
2022/09/13 02:40:02;;;;;;;5.90;2.88;;;;;;;;;;10603762;27;20051;-75
2022/09/13 02:45:06;;;;;;;5.93;2.60;;;;;;;;;;10611620;27;20035;-76
2022/09/13 02:50:20;;;;;;;6.07;3.08;;;;;;;;;;10606171;28;20392;-77
2022/09/13 02:55:23;;;;;;;;;;;;;;;;;;10604249;27;20036;-75
2022/09/13 03:00:26;;;;;;;6.18;2.63;;;;;;;;;;10610274;27;19919;-75
2022/09/13 03:05:31;;;;;;;4.82;2.17;;;;;;;;;;10600088;27;20038;-75
2022/09/13 03:10:38;;;;;;;5.70;2.72;;;;;;;;;;10606834;28;20051;-75
2022/09/13 03:15:49;;;;;;;6.63;3.08;;;;;;;;;;10608778;27;20027;-76
2022/09/13 03:21:01;;;;;;;7.65;3.05;;;;;;;;;;10604580;27;20042;-76
2022/09/13 03:26:18;;;;;;;6.10;2.95;;;;;;;;;;10602472;28;20044;-75
2022/09/13 03:31:26;;;;;;;5.47;2.92;;;;;;;;;;10588650;27;20035;-75
2022/09/13 03:36:36;;;;;;;5.45;2.58;;;;;;;;;;10604523;27;20507;-75
2022/09/13 03:41:42;;;;;;;5.47;2.90;;;;;;;;;;10587750;27;20045;-75
2022/09/13 03:46:46;;;;;;;3.88;2.53;;;;;;;;;;10613441;27;20036;-76
2022/09/13 03:51:52;;;;;;;7.38;2.65;;;;;;;;;;10611065;27;20591;-75
2022/09/13 03:57:12;;;;;;;7.05;2.70;;;;;;;;;;10612540;27;20039;-76
2022/09/13 04:02:16;;;;;;;5.47;2.88;;;;;;;;;;10612737;27;20032;-74
2022/09/13 04:07:23;;;;;;;5.57;2.42;;;;;;;;;;10608176;27;20111;-75
2022/09/13 04:12:27;;;;;;;5.88;2.00;;;;;;;;;;10611963;27;20035;-75
2022/09/13 04:17:30;;;;;;;6.00;1.98;;;;;;;;;;10607711;27;20041;-75
2022/09/13 04:22:36;;;;;;;3.90;1.77;;;;;;;;;;10611279;27;20027;-75
2022/09/13 04:27:39;;;;;;;4.50;1.90;;;;;;;;;;10607689;27;20104;-76
2022/09/13 04:32:42;;;;;;;5.22;1.90;;;;;;;;;;10611852;27;20475;-75
2022/09/13 04:37:46;;;;;;;3.72;1.75;;;;;;;;;;10615555;27;20039;-76
2022/09/13 04:42:49;;;;;;;4.45;1.42;;;;;;;;;;10609585;27;20046;-76
2022/09/13 04:47:52;;;;;;;3.92;2.35;;;;;;;;;;10614949;27;20043;-75
2022/09/13 04:52:56;;;;;;;5.43;1.90;;;;;;;;;;10611082;27;20067;-75
2022/09/13 04:57:59;;;;;;;4.20;1.98;;;;;;;;;;10594736;27;20057;-75
2022/09/13 05:03:02;;;;;;;3.58;1.60;;;;;;;;;;10607706;27;20046;-76
2022/09/13 05:08:10;;;;;;;4.82;2.20;;;;;;;;;;10606352;27;20138;-75
2022/09/13 05:13:13;;;;;;;4.80;1.65;;;;;;;;;;10609283;27;20027;-76
2022/09/13 05:18:16;;;;;;;2.95;1.70;;;;;;;;;;10604414;27;20035;-75
2022/09/13 05:23:20;;;;;;;5.40;1.90;;;;;;;;;;10589264;27;20061;-76
2022/09/13 05:28:23;;;;;;;2.70;1.83;;;;;;;;;;10605353;27;20118;-76
2022/09/13 05:33:26;;;;;;;6.90;1.90;;;;;;;;;;10609774;27;20035;-76
2022/09/13 05:38:30;;;;;;;4.67;2.00;;;;;;;;;;10606897;27;20574;-76
2022/09/13 05:43:35;;;;;;;3.13;1.58;;;;;;;;;;10579544;27;20047;-77
2022/09/13 05:48:38;;;;;;;5.43;2.50;;;;;;;;;;10606805;27;20065;-76
2022/09/13 05:53:45;;;;;;;4.77;1.70;;;;;;;;;;10582501;27;20681;-79
2022/09/13 05:58:49;;;;;;;4.43;1.67;;;;;;;;;;10608555;27;20066;-78
2022/09/13 06:03:52;;;;;;;4.97;2.10;;;;;;;;;;10601578;27;20043;-77
2022/09/13 06:08:58;;;;;;;3.17;1.90;;;;;;;;;;10601190;27;20066;-76
2022/09/13 06:14:01;;;;;;;6.07;2.05;;;;;;;;;;10603969;27;20059;-76
2022/09/13 06:19:03;;;;;;;5.20;1.95;;;;;;;;;;10602570;27;20154;-77
2022/09/13 06:24:08;;;;;;;3.65;2.05;;;;;;;;;;10600108;27;20035;-76
2022/09/13 06:29:11;;;;;;;6.65;1.85;;;;;;;;;;10602910;28;20058;-76
2022/09/13 06:34:18;;;;;;;4.43;1.85;;;;;;;;;;10597992;28;20035;-76
2022/09/13 06:39:25;;;;;;;2.72;1.80;;;;;;;;;;10597662;27;20035;-76
2022/09/13 06:44:28;;;;;;;5.25;2.00;;;;;;;;;;10597805;28;20046;-76
2022/09/13 06:49:31;;;;;;;2.57;1.80;;;;;;;;;;10595081;28;20519;-77
2022/09/13 06:54:35;;;;;;;6.00;1.80;;;;;;;;;;10597444;28;20031;-76
2022/09/13 06:59:38;;;;;;;5.40;1.60;;;;;;;;;;10592842;27;20090;-76
2022/09/13 07:04:41;;;;;;;3.35;1.85;;;;;;;;;;10594906;27;20197;-76
2022/09/13 07:09:45;;;;;;;3.80;2.10;;;;;;;;;;10596073;28;20039;-77
2022/09/13 07:14:48;;;;;;;4.97;2.30;;;;;;;;;;10604467;27;20029;-76
2022/09/13 07:19:51;;;;;;;3.63;2.20;;;;;;;;;;10607131;27;20496;-77
2022/09/13 07:24:56;;;;;;;2.40;1.77;;;;;;;;;;10606183;27;20067;-77
2022/09/13 07:29:58;;;;;;;4.30;1.98;;;;;;;;;;10627302;22;20036;-76
2022/09/13 07:35:01;;;;;;;3.08;1.80;;;;;;;;;;10516117;28;20040;-77
2022/09/13 07:40:06;;;;;;;3.42;1.75;;;;;;;;;;10521202;28;20110;-76
2022/09/13 07:45:11;;;;;;;5.95;3.33;;;;;;;;;;10534123;28;20050;-76
2022/09/13 07:50:17;;;;;;;2.97;1.75;;;;;;;;;;10511448;28;20071;-77
2022/09/13 07:55:21;;;;;;;5.72;2.00;;;;;;;;;;10505521;28;20131;-77
2022/09/13 08:00:24;;;;;;;3.33;1.70;;;;;;;;;;10520535;28;20029;-77
2022/09/13 08:05:27;;;;;;;4.50;3.33;;;;;;;;;;10523207;28;20044;-76
2022/09/13 08:10:31;;;;;;;1.63;1.50;;;;;;;;;;10521832;28;20044;-76
2022/09/13 08:15:34;;;;;;;2.10;1.70;;;;;;;;;;10527309;28;20040;-76
2022/09/13 08:20:37;;;;;;;2.88;1.73;;;;;;;;;;10516692;28;20040;-76
2022/09/13 08:25:41;;;;;;;3.28;1.35;;;;;;;;;;10520089;28;20059;-76
2022/09/13 08:30:44;;;;;;;2.20;1.40;;;;;;;;;;10535568;28;20040;-76
2022/09/13 08:35:51;;;;;;;1.48;1.38;;;;;;;;;;10519323;28;20135;-76
2022/09/13 08:40:56;;;;;;;4.13;1.40;;;;;;;;;;10522202;28;20051;-76
2022/09/13 08:46:02;;;;;;;3.33;2.05;;;;;;;;;;10501240;28;20064;-76
2022/09/13 08:51:07;;;;;;;2.75;1.50;;;;;;;;;;10507368;28;20671;-76
2022/09/13 08:56:12;;;;;;;1.45;1.35;;;;;;;;;;10515814;28;20046;-76
2022/09/13 09:01:20;;;;;;;4.70;1.80;;;;;;;;;;10517505;28;20100;-77
2022/09/13 09:06:24;;;;;;;6.00;1.60;;;;;;;;;;10528294;28;20134;-76
2022/09/13 09:11:32;;;;;;;2.90;1.65;;;;;;;;;;10520404;28;20036;-76
2022/09/13 09:16:37;;;;;;;4.45;1.80;;;;;;;;;;10501870;28;20055;-77
2022/09/13 09:21:40;;;;;;;2.47;2.20;;;;;;;;;;10514737;28;20052;-75
2022/09/13 09:26:44;;;;;;;3.35;1.80;;;;;;;;;;10514100;28;20036;-77
2022/09/13 09:31:55;;;;;;;2.72;2.05;;;;;;;;;;10524017;28;20248;-76
2022/09/13 09:37:03;;;;;;;2.47;1.88;;;;;;;;;;10496026;28;20038;-78
2022/09/13 09:42:11;;;;;;;2.20;2.00;;;;;;;;;;10513781;28;20040;-76
2022/09/13 09:47:15;;;;;;;3.47;2.30;;;;;;;;;;10511526;28;20028;-77
2022/09/13 09:52:27;;;;;;;2.00;1.90;;;;;;;;;;10517561;28;20056;-76
2022/09/13 09:57:47;;;;;;;2.30;2.10;;;;;;;;;;10510720;28;20679;-77
2022/09/13 10:02:53;;;;;;;5.13;2.67;;;;;;;;;;10510524;28;20131;-77
2022/09/13 10:07:58;;;;;;;3.13;2.10;;;;;;;;;;10530726;28;20429;-77
2022/09/13 10:13:00;;;;;;;2.22;2.03;;;;;;;;;;10517237;28;20128;-77
2022/09/13 10:18:13;;;;;;;3.10;2.20;;;;;;;;;;10505802;28;20051;-77
2022/09/13 10:23:38;;;;;;;2.38;1.90;;;;;;;;;;10512030;28;20142;-78
2022/09/13 10:28:44;;;;;;;3.92;2.20;;;;;;;;;;10518406;28;20040;-77
2022/09/13 10:33:52;;;;;;;3.55;2.10;;;;;;;;;;10515182;28;20107;-77
2022/09/13 10:38:57;;;;;;;3.67;2.25;;;;;;;;;;10500798;28;20043;-77
2022/09/13 10:44:03;;;;;;;2.53;2.20;;;;;;;;;;10504706;28;20599;-78
2022/09/13 10:49:26;;;;;;;3.38;2.40;;;;;;;;;;10499838;28;20032;-77
2022/09/13 10:54:31;;;;;;;3.13;2.17;;;;;;;;;;10520350;28;20037;-77
2022/09/13 10:59:34;;;;;;;3.00;1.85;;;;;;;;;;10539286;28;20056;-77
2022/09/13 11:04:44;;;;;;;2.40;1.80;;;;;;;;;;10532178;28;20215;-77
2022/09/13 11:09:52;;;;;;;2.13;1.60;;;;;;;;;;10517395;28;20036;-76
2022/09/13 11:15:01;;;;;;;1.63;1.40;;;;;;;;;;10532375;28;20041;-76
2022/09/13 11:20:09;;;;;;;2.63;1.40;;;;;;;;;;10531368;28;20032;-77
2022/09/13 11:25:26;;;;;;;2.47;1.20;;;;;;;;;;10499821;28;20032;-77
2022/09/13 11:30:31;;;;;;;3.83;1.30;;;;;;;;;;10493637;28;20123;-76
2022/09/13 11:35:44;;;;;;;1.95;1.65;;;;;;;;;;10507056;28;20040;-76
2022/09/13 11:40:55;;;;;;;1.30;1.20;;;;;;;;;;10514757;28;20068;-77
2022/09/13 11:46:02;;;;;;;1.20;1.15;;;;;;;;;;10530008;28;20028;-76
2022/09/13 11:51:11;;;;;;;1.25;0.98;;;;;;;;;;10537458;28;20043;-76
2022/09/13 11:56:17;;;;;;;1.42;1.10;;;;;;;;;;10535640;28;20451;-76
2022/09/13 12:01:22;;;;;;;1.23;1.13;;;;;;;;;;10532814;28;20098;-77
2022/09/13 12:06:26;;;;;;;1.95;1.10;;;;;;;;;;10542918;28;20447;-76
2022/09/13 12:11:32;;;;;;;1.80;1.15;;;;;;;;;;10515187;28;20046;-75
2022/09/13 12:16:38;;;;;;;2.45;1.33;;;;;;;;;;10519566;28;20040;-75
2022/09/13 12:21:43;;;;;;;3.20;1.63;;;;;;;;;;10521884;28;20040;-75
2022/09/13 12:26:49;;;;;;;3.05;2.00;;;;;;;;;;10519905;28;20567;-78
2022/09/13 12:31:54;;;;;;;2.00;1.80;;;;;;;;;;10522240;28;20121;-75
2022/09/13 12:37:08;;;;;;;2.67;1.90;;;;;;;;;;10539322;28;20044;-76
2022/09/13 12:42:30;;;;;;;2.72;1.80;;;;;;;;;;10522764;28;20058;-75
2022/09/13 12:47:41;;;;;;;2.28;1.60;;;;;;;;;;10535164;28;20036;-76
2022/09/13 12:52:47;;;;;;;3.22;1.70;;;;;;;;;;10519830;28;20048;-77
2022/09/13 12:57:57;;;;;;;3.30;2.08;;;;;;;;;;10524030;28;20038;-77
2022/09/13 13:03:10;;;;;;;2.05;1.90;;;;;;;;;;10544578;28;20033;-79
2022/09/13 13:08:26;;;;;;;2.75;1.60;;;;;;;;;;10524981;28;20040;-80
2022/09/13 13:13:33;;;;;;;3.17;2.00;;;;;;;;;;10520571;28;20051;-78
2022/09/13 13:18:44;;;;;;;3.83;1.60;;;;;;;;;;10522271;28;20163;-78
2022/09/13 13:23:47;;;;;;;1.65;1.38;;;;;;;;;;10521688;28;20039;-77
2022/09/13 13:29:15;;;;;;;3.08;1.90;;;;;;;;;;10534135;28;20085;-78
2022/09/13 13:34:45;;;;;;;1.73;1.40;;;;;;;;;;10510436;28;20104;-78
2022/09/13 13:40:10;;;;;;;1.58;1.30;;;;;;;;;;10475867;28;20048;-76
2022/09/13 13:45:18;;;;;;;1.85;1.20;;;;;;;;;;10492798;28;20363;-78
2022/09/13 13:50:24;;;;;;;1.50;1.13;;;;;;;;;;10514163;28;20044;-77
2022/09/13 13:55:38;;;;;;;2.15;1.40;;;;;;;;;;10500852;28;20048;-77
2022/09/13 14:00:46;;;;;;;1.77;1.30;;;;;;;;;;10502229;28;20036;-77
2022/09/13 14:05:54;;;;;;;1.15;1.05;;;;;;;;;;10512816;28;20054;-78
2022/09/13 14:11:02;;;;;;;3.10;0.95;;;;;;;;;;10506459;28;20067;-78
2022/09/13 14:16:09;;;;;;;2.22;1.15;;;;;;;;;;10519182;28;20043;-78
2022/09/13 14:21:20;;;;;;;1.63;0.98;;;;;;;;;;10518044;28;20074;-78
2022/09/13 14:26:24;;;;;;;1.25;0.98;;;;;;;;;;10514339;28;20405;-78
2022/09/13 14:31:26;;;;;;;1.42;1.02;;;;;;;;;;10499048;28;20043;-78
2022/09/13 14:36:35;;;;;;;2.15;1.10;;;;;;;;;;10497720;28;20417;-79
2022/09/13 14:41:39;;;;;;;3.15;1.40;;;;;;;;;;10520723;28;20119;-78
2022/09/13 14:46:48;;;;;;;2.45;1.10;;;;;;;;;;10492232;28;20874;-78
2022/09/13 14:51:55;;;;;;;2.88;1.65;;;;;;;;;;10512465;28;20044;-77
2022/09/13 14:57:00;;;;;;;1.50;1.05;;;;;;;;;;10507912;28;20227;-78
2022/09/13 15:02:07;;;;;;;2.55;1.10;;;;;;;;;;10508716;28;20135;-78
2022/09/13 15:07:21;;;;;;;1.10;1.00;;;;;;;;;;10514615;28;20127;-78
2022/09/13 15:12:26;;;;;;;2.65;1.17;;;;;;;;;;10509861;28;20070;-78
2022/09/13 15:17:29;;;;;;;1.70;1.30;;;;;;;;;;10497087;28;20056;-77
2022/09/13 15:22:33;;;;;;;2.22;1.00;;;;;;;;;;10507712;28;20536;-77
2022/09/13 15:27:44;;;;;;;2.47;1.15;;;;;;;;;;10515142;28;20033;-78
2022/09/13 15:32:47;;;;;;;8.95;1.77;;;;;;;;;;10515264;28;20052;-77
2022/09/13 15:37:58;;;;;;;3.67;1.52;;;;;;;;;;10516995;28;20123;-77
2022/09/13 15:43:03;;;;;;;1.23;1.00;;;;;;;;;;10512466;28;20131;-77
2022/09/13 15:48:05;;;;;;;4.55;1.45;;;;;;;;;;10520434;28;20499;-77
2022/09/13 15:53:11;;;;;;;2.75;1.08;;;;;;;;;;10517156;28;20079;-77
2022/09/13 15:58:15;;;;;;;2.42;1.30;;;;;;;;;;10529843;28;20039;-77
2022/09/13 16:03:18;;;;;;;2.00;1.00;;;;;;;;;;10512567;28;20070;-79
2022/09/13 16:08:21;;;;;;;1.58;1.17;;;;;;;;;;10506930;28;20042;-78
2022/09/13 16:13:25;;;;;;;3.22;1.80;;;;;;;;;;10520484;28;20058;-78
2022/09/13 16:18:28;;;;;;;3.15;1.42;;;;;;;;;;10514659;28;20369;-78
2022/09/13 16:23:31;;;;;;;1.55;1.20;;;;;;;;;;10515885;28;20052;-78
2022/09/13 16:28:35;;;;;;;3.80;1.70;;;;;;;;;;10524909;28;20036;-79
2022/09/13 16:33:38;;;;;;;3.90;1.50;;;;;;;;;;10495837;28;20040;-78
2022/09/13 16:38:41;;;;;;;3.53;1.45;;;;;;;;;;10508250;28;20428;-79
2022/09/13 16:43:46;;;;;;;3.25;1.40;;;;;;;;;;10515866;28;20042;-78
2022/09/13 16:48:53;;;;;;;3.03;1.80;;;;;;;;;;10507176;28;20036;-79
2022/09/13 16:53:56;;;;;;;4.43;1.60;;;;;;;;;;10501779;28;20536;-77
2022/09/13 16:59:01;;;;;;;3.92;1.60;;;;;;;;;;10506789;28;20060;-77
2022/09/13 17:04:05;;;;;;;2.33;1.50;;;;;;;;;;10513341;28;20063;-79
2022/09/13 17:09:08;;;;;;;2.95;1.55;;;;;;;;;;10515306;28;20143;-78
2022/09/13 17:14:13;;;;;;;6.45;2.22;;;;;;;;;;10501445;28;20043;-77
2022/09/13 17:19:17;;;;;;;5.20;1.80;;;;;;;;;;10522510;28;20036;-77
2022/09/13 17:24:20;;;;;;;3.00;1.80;;;;;;;;;;10513309;28;20043;-77
2022/09/13 17:29:24;;;;;;;;;;;;;;;;;;10510266;28;20066;-78
2022/09/13 17:34:29;;;;;;;5.15;1.88;;;;;;;;;;10519536;28;19999;-78
2022/09/13 17:39:32;;;;;;;4.40;1.95;;;;;;;;;;10518400;28;20096;-78
2022/09/13 17:44:35;;;;;;;6.30;2.10;;;;;;;;;;10489523;28;20037;-79
2022/09/13 17:49:45;;;;;;;7.47;2.10;;;;;;;;;;10492668;28;20036;-77
2022/09/13 17:54:49;;;;;;;6.05;2.03;;;;;;;;;;10512169;28;20528;-77
2022/09/13 17:59:53;;;;;;;7.05;1.90;;;;;;;;;;10509634;28;20036;-77
2022/09/13 18:04:58;;;;;;;3.15;1.90;;;;;;;;;;10515569;28;20092;-78
2022/09/13 18:10:08;;;;;;;4.95;2.58;;;;;;;;;;10501062;28;20043;-78
2022/09/13 18:15:27;;;;;;;5.72;2.60;;;;;;;;;;10515145;28;20719;-76
2022/09/13 18:20:30;;;;;;;;;;;;;;;;;;10524664;28;20040;-78
2022/09/13 18:25:35;;;;;;;4.72;2.30;;;;;;;;;;10522669;28;19928;-78
2022/09/13 18:30:37;;;;;;;6.18;2.60;;;;;;;;;;10523040;28;20416;-77
2022/09/13 18:35:40;;;;;;;6.43;2.55;;;;;;;;;;10530344;28;20036;-78
2022/09/13 18:40:45;;;;;;;6.93;3.00;;;;;;;;;;10529222;28;20082;-77
2022/09/13 18:45:53;;;;;;;6.35;2.65;;;;;;;;;;10527229;28;20127;-77
2022/09/13 18:50:56;;;;;;;6.38;3.03;;;;;;;;;;10506029;28;20032;-77
2022/09/13 18:55:59;;;;;;;;;;;;;;;;;;10521746;28;20051;-78
2022/09/13 19:01:04;;;;;;;5.80;2.30;;;;;;;;;;10524423;28;19926;-77
2022/09/13 19:06:08;;;;;;;8.13;3.30;;;;;;;;;;10514769;28;20040;-77
2022/09/13 19:11:21;;;;;;;5.18;2.90;;;;;;;;;;10533510;28;20051;-78
2022/09/13 19:16:46;;;;;;;5.55;2.83;;;;;;;;;;10524999;28;20036;-76
2022/09/13 19:21:49;;;;;;;5.32;2.55;;;;;;;;;;10530462;28;20055;-78
2022/09/13 19:26:54;;;;;;;4.20;2.35;;;;;;;;;;10527484;28;20047;-78
2022/09/13 19:31:58;;;;;;;3.97;2.33;;;;;;;;;;10506436;28;20489;-79
2022/09/13 19:37:04;;;;;;;4.50;2.50;;;;;;;;;;10518616;28;20071;-78
2022/09/13 19:42:07;;;;;;;7.43;2.70;;;;;;;;;;10511819;28;20040;-78
2022/09/13 19:47:11;;;;;;;3.22;2.10;;;;;;;;;;10532491;28;20143;-77
2022/09/13 19:52:34;;;;;;;2.95;2.20;;;;;;;;;;10533378;28;20048;-76
2022/09/13 19:57:37;;;;;;;3.08;2.28;;;;;;;;;;10530181;28;20040;-77
2022/09/13 20:02:47;;;;;;;6.75;2.60;;;;;;;;;;10523893;28;20064;-75
2022/09/13 20:07:50;;;;;;;6.00;2.75;;;;;;;;;;10525591;28;20068;-76
2022/09/13 20:12:54;;;;;;;4.72;2.70;;;;;;;;;;10520009;28;20055;-76
2022/09/13 20:17:58;;;;;;;6.18;2.83;;;;;;;;;;10501482;28;20050;-76
2022/09/13 20:23:01;;;;;;;4.50;2.78;;;;;;;;;;10519320;28;20040;-76
2022/09/13 20:28:03;;;;;;;8.13;3.05;;;;;;;;;;10534532;28;20043;-75
2022/09/13 20:33:08;;;;;;;4.85;2.83;;;;;;;;;;10507570;28;20373;-74
2022/09/13 20:38:11;;;;;;;4.05;2.63;;;;;;;;;;10527140;28;20040;-75
2022/09/13 20:43:14;;;;;;;5.65;3.35;;;;;;;;;;10522594;28;20044;-74
2022/09/13 20:48:18;;;;;;;6.90;2.92;;;;;;;;;;10529364;28;20028;-74
2022/09/13 20:53:21;;;;;;;6.88;3.70;;;;;;;;;;10513968;28;20063;-76
2022/09/13 20:58:24;;;;;;;7.43;3.53;;;;;;;;;;10533836;28;20043;-75
2022/09/13 21:03:28;;;;;;;9.65;4.65;;;;;;;;;;10522107;28;20087;-75
2022/09/13 21:08:45;;;;;;;12.70;5.80;;;;;;;;;;10515638;28;20036;-74
2022/09/13 21:13:51;;;;;;;7.82;3.42;;;;;;;;;;10524950;28;20036;-76
2022/09/13 21:18:55;;;;;;;10.23;4.80;;;;;;;;;;10514878;28;20677;-74
2022/09/13 21:24:02;;;;;;;5.22;3.20;;;;;;;;;;10516324;28;20058;-76
2022/09/13 21:29:05;;;;;;;5.43;3.03;;;;;;;;;;10511184;28;20540;-74
2022/09/13 21:34:15;;;;;;;5.97;3.42;;;;;;;;;;10512017;28;20043;-75
2022/09/13 21:39:18;;;;;;;8.70;4.70;;;;;;;;;;10527829;28;20419;-75
2022/09/13 21:44:21;;;;;;;6.15;3.00;;;;;;;;;;10513737;28;20131;-75
2022/09/13 21:49:26;;;;;;;5.35;3.38;;;;;;;;;;10524697;28;20044;-75
2022/09/13 21:54:29;;;;;;;4.82;3.10;;;;;;;;;;10521638;28;20464;-75
2022/09/13 21:59:32;;;;;;;8.18;3.90;;;;;;;;;;10503009;28;20132;-75
2022/09/13 22:04:36;;;;;;;6.30;3.00;;;;;;;;;;10511854;28;20036;-75
2022/09/13 22:09:39;;;;;;;5.82;3.25;;;;;;;;;;10534036;28;20040;-76
2022/09/13 22:14:42;;;;;;;12.80;3.75;;;;;;;;;;10524074;28;20040;-77
2022/09/13 22:19:46;;;;;;;12.20;4.38;;;;;;;;;;10538800;28;20052;-75
2022/09/13 22:24:52;;;;;;;9.15;3.75;;;;;;;;;;10528613;28;20110;-75
2022/09/13 22:29:54;;;;;;;9.27;4.13;;;;;;;;;;10523785;28;20036;-75
2022/09/13 22:34:58;;;;;;;8.02;4.15;;;;;;;;;;10505664;28;20123;-74
2022/09/13 22:40:01;;;;;;;11.00;4.47;;;;;;;;;;10534224;28;20134;-74
2022/09/13 22:45:06;;;;;;;8.70;4.28;;;;;;;;;;10536129;28;20043;-75
2022/09/13 22:50:11;;;;;;;8.13;5.13;;;;;;;;;;10526353;28;20485;-74
2022/09/13 22:55:19;;;;;;;8.13;4.78;;;;;;;;;;10526263;28;20036;-74
2022/09/13 23:00:22;;;;;;;10.67;5.43;;;;;;;;;;10531767;28;20542;-74
2022/09/13 23:05:27;;;;;;;10.20;4.35;;;;;;;;;;10537985;28;20062;-76
2022/09/13 23:10:30;;;;;;;8.93;4.20;;;;;;;;;;10513090;28;20040;-77
2022/09/13 23:15:32;;;;;;;9.60;4.18;;;;;;;;;;10530848;28;20405;-74
2022/09/13 23:20:37;;;;;;;7.30;4.00;;;;;;;;;;10521312;28;20044;-75
2022/09/13 23:25:39;;;;;;;6.65;3.55;;;;;;;;;;10507391;28;20334;-73
2022/09/13 23:30:42;;;;;;;9.63;3.33;;;;;;;;;;10519791;28;20130;-75
2022/09/13 23:35:46;;;;;;;5.30;3.42;;;;;;;;;;10539289;28;20067;-76
2022/09/13 23:40:49;;;;;;;6.22;3.40;;;;;;;;;;10525751;28;20037;-77
2022/09/13 23:45:52;;;;;;;6.05;3.25;;;;;;;;;;10518583;28;20056;-74
2022/09/13 23:51:00;;;;;;;4.70;3.20;;;;;;;;;;10545538;28;20377;-75
2022/09/13 23:56:06;;;;;;;5.75;3.42;;;;;;;;;;10538197;28;20044;-76
